createdAt,value
2022-12-04T00:01:31.870Z,1.79
2022-12-04T00:04:01.852Z,1.91
2022-12-04T00:06:30.498Z,2.04
2022-12-04T00:08:59.022Z,1.70
2022-12-04T00:11:31.120Z,1.99
2022-12-04T00:14:06.097Z,2.03
2022-12-04T00:16:35.648Z,1.86
2022-12-04T00:19:04.817Z,2.07
2022-12-04T00:21:33.134Z,1.88
2022-12-04T00:24:01.522Z,1.86
2022-12-04T00:26:32.174Z,2.29
2022-12-04T00:29:01.012Z,2.13
2022-12-04T00:31:30.785Z,2.34
2022-12-04T00:34:00.375Z,1.60
2022-12-04T00:36:30.854Z,1.91
2022-12-04T00:39:01.038Z,2.30
2022-12-04T00:41:33.757Z,2.39
2022-12-04T00:44:03.764Z,2.37
2022-12-04T00:46:32.583Z,2.05
2022-12-04T00:49:03.187Z,2.06
2022-12-04T00:51:32.106Z,2.02
2022-12-04T00:54:00.938Z,1.75
2022-12-04T00:56:31.521Z,2.44
2022-12-04T00:59:01.351Z,2.86
2022-12-04T01:01:30.468Z,2.23
2022-12-04T01:03:59.388Z,2.13
2022-12-04T01:06:29.231Z,2.54
2022-12-04T01:08:58.548Z,2.34
2022-12-04T01:11:27.962Z,2.16
2022-12-04T01:13:58.389Z,2.23
2022-12-04T01:16:28.510Z,2.19
2022-12-04T01:18:57.205Z,2.12
2022-12-04T01:21:25.422Z,2.23
2022-12-04T01:23:53.997Z,1.50
2022-12-04T01:26:22.426Z,1.64
2022-12-04T01:28:51.114Z,1.44
2022-12-04T01:31:22.224Z,1.60
2022-12-04T01:33:51.739Z,1.77
2022-12-04T01:36:21.785Z,1.77
2022-12-04T01:38:51.200Z,1.34
2022-12-04T01:41:22.367Z,1.54
2022-12-04T01:44:12.337Z,1.94
2022-12-04T01:46:42.456Z,1.61
2022-12-04T01:49:13.742Z,1.61
2022-12-04T01:51:44.020Z,1.50
2022-12-04T01:54:16.837Z,1.72
2022-12-04T01:56:47.518Z,1.83
2022-12-04T01:59:18.487Z,1.81
2022-12-04T02:01:54.344Z,1.67
2022-12-04T02:04:23.116Z,1.26
2022-12-04T02:06:51.225Z,1.35
2022-12-04T02:09:26.214Z,1.39
2022-12-04T02:12:00.646Z,1.81
2022-12-04T02:14:34.545Z,1.77
2022-12-04T02:17:13.044Z,1.62
2022-12-04T02:19:53.752Z,1.63
2022-12-04T02:22:32.562Z,1.34
2022-12-04T02:25:06.635Z,1.26
2022-12-04T02:28:11.077Z,1.56
2022-12-04T02:30:41.838Z,1.57
2022-12-04T02:33:19.503Z,1.66
2022-12-04T02:35:50.047Z,1.59
2022-12-04T02:38:24.717Z,1.74
2022-12-04T02:40:57.830Z,1.73
2022-12-04T02:43:28.704Z,1.86
2022-12-04T02:45:58.419Z,2.33
2022-12-04T02:48:27.829Z,1.88
2022-12-04T02:50:58.062Z,2.05
2022-12-04T02:53:28.580Z,1.96
2022-12-04T02:55:59.471Z,1.72
2022-12-04T02:58:32.344Z,2.29
2022-12-04T03:01:02.659Z,1.73
2022-12-04T03:03:32.351Z,1.94
2022-12-04T03:06:02.906Z,1.63
2022-12-04T03:08:36.118Z,1.90
2022-12-04T03:11:05.058Z,1.29
2022-12-04T03:13:40.120Z,1.90
2022-12-04T03:16:11.559Z,1.48
2022-12-04T03:18:42.017Z,1.62
2022-12-04T03:21:13.350Z,1.82
2022-12-04T03:23:45.828Z,1.76
2022-12-04T03:26:22.546Z,1.60
2022-12-04T03:28:58.295Z,1.69
2022-12-04T03:31:33.222Z,1.49
2022-12-04T03:34:04.466Z,1.23
2022-12-04T03:36:37.914Z,1.53
2022-12-04T03:39:10.307Z,1.22
2022-12-04T03:41:50.088Z,1.90
2022-12-04T03:44:24.565Z,1.51
2022-12-04T03:46:56.458Z,1.91
2022-12-04T03:49:29.206Z,1.43
2022-12-04T03:52:01.475Z,1.89
2022-12-04T03:54:32.258Z,1.44
2022-12-04T03:57:03.179Z,1.82
2022-12-04T03:59:38.973Z,1.57
2022-12-04T04:02:10.040Z,1.59
2022-12-04T04:04:41.305Z,1.63
2022-12-04T04:07:10.861Z,1.87
2022-12-04T04:09:42.785Z,1.11
2022-12-04T04:12:16.145Z,1.57
2022-12-04T04:15:08.125Z,1.49
2022-12-04T04:17:58.610Z,1.61
2022-12-04T04:20:51.970Z,1.90
2022-12-04T04:23:38.960Z,1.16
2022-12-04T04:26:08.164Z,1.39
2022-12-04T04:28:38.402Z,1.36
2022-12-04T04:31:13.049Z,1.88
2022-12-04T04:33:49.735Z,1.91
2022-12-04T04:36:25.368Z,1.86
2022-12-04T04:39:01.203Z,1.82
2022-12-04T04:41:35.411Z,1.55
2022-12-04T04:44:10.167Z,1.44
2022-12-04T04:46:42.015Z,1.46
2022-12-04T04:49:12.281Z,1.23
2022-12-04T04:51:40.537Z,1.03
2022-12-04T04:54:11.150Z,1.43
2022-12-04T04:56:42.047Z,1.65
2022-12-04T04:59:10.644Z,1.40
2022-12-04T05:01:40.857Z,1.79
2022-12-04T05:04:09.673Z,1.00
2022-12-04T05:06:37.902Z,1.24
2022-12-04T05:09:06.677Z,1.39
2022-12-04T05:11:34.923Z,1.14
2022-12-04T05:14:03.460Z,1.08
2022-12-04T05:16:32.746Z,0.62
2022-12-04T05:19:23.344Z,1.43
2022-12-04T05:21:51.569Z,1.21
2022-12-04T05:24:20.002Z,1.25
2022-12-04T05:26:48.063Z,0.75
2022-12-04T05:29:16.501Z,0.61
2022-12-04T05:31:45.866Z,0.14
2022-12-04T05:34:17.012Z,1.01
2022-12-04T05:36:45.464Z,1.21
2022-12-04T05:39:14.621Z,1.47
2022-12-04T05:41:42.633Z,0.76
2022-12-04T05:44:10.911Z,1.22
2022-12-04T05:46:39.945Z,1.00
2022-12-04T05:49:08.795Z,1.11
2022-12-04T05:51:38.978Z,1.39
2022-12-04T05:54:08.549Z,1.76
2022-12-04T05:56:38.503Z,1.32
2022-12-04T05:59:07.647Z,1.29
2022-12-04T06:01:36.505Z,1.36
2022-12-04T06:04:05.700Z,0.99
2022-12-04T06:06:34.163Z,1.66
2022-12-04T06:09:04.703Z,1.90
2022-12-04T06:11:34.564Z,1.98
2022-12-04T06:14:05.848Z,2.16
2022-12-04T06:16:37.048Z,1.35
2022-12-04T06:19:07.569Z,1.14
2022-12-04T06:21:38.745Z,1.21
2022-12-04T06:24:14.862Z,0.97
2022-12-04T06:27:04.023Z,0.78
2022-12-04T06:29:32.047Z,1.11
2022-12-04T06:32:03.360Z,1.00
2022-12-04T06:34:32.578Z,0.65
2022-12-04T06:37:00.786Z,0.97
2022-12-04T06:39:30.658Z,1.43
2022-12-04T06:41:58.810Z,1.11
2022-12-04T06:44:27.185Z,1.43
2022-12-04T06:46:55.451Z,1.20
2022-12-04T06:49:25.554Z,1.18
2022-12-04T06:51:53.607Z,1.18
2022-12-04T06:54:21.933Z,1.16
2022-12-04T06:56:51.432Z,1.48
2022-12-04T06:59:19.941Z,1.60
2022-12-04T07:01:48.305Z,1.74
2022-12-04T07:04:16.714Z,1.75
2022-12-04T07:06:44.770Z,1.64
2022-12-04T07:09:15.334Z,1.33
2022-12-04T07:11:44.055Z,1.32
2022-12-04T07:14:14.677Z,1.56
2022-12-04T07:16:43.607Z,1.18
2022-12-04T07:19:13.771Z,1.11
2022-12-04T07:21:42.726Z,1.57
2022-12-04T07:24:15.644Z,1.76
2022-12-04T07:26:44.044Z,1.52
2022-12-04T07:29:13.850Z,1.84
2022-12-04T07:31:42.050Z,1.82
2022-12-04T07:34:10.535Z,1.33
2022-12-04T07:36:40.251Z,1.69
2022-12-04T07:39:08.743Z,1.27
2022-12-04T07:41:37.007Z,1.35
2022-12-04T07:44:05.902Z,1.04
2022-12-04T07:46:38.096Z,1.38
2022-12-04T07:49:06.469Z,1.10
2022-12-04T07:51:34.531Z,1.56
2022-12-04T07:54:04.344Z,1.45
2022-12-04T07:56:32.832Z,1.49
2022-12-04T07:59:01.230Z,1.97
2022-12-04T08:01:29.877Z,1.99
2022-12-04T08:04:01.119Z,2.30
2022-12-04T08:06:31.009Z,2.45
2022-12-04T08:09:01.525Z,1.63
2022-12-04T08:11:33.340Z,2.14
2022-12-04T08:14:03.777Z,1.81
2022-12-04T08:16:33.724Z,2.20
2022-12-04T08:19:03.591Z,2.50
2022-12-04T08:21:32.485Z,2.02
2022-12-04T08:24:01.721Z,1.90
2022-12-04T08:26:31.245Z,1.70
2022-12-04T08:29:01.374Z,1.46
2022-12-04T08:31:31.081Z,2.10
2022-12-04T08:34:00.208Z,2.22
2022-12-04T08:36:30.372Z,2.11
2022-12-04T08:38:59.375Z,1.59
2022-12-04T08:41:28.208Z,2.18
2022-12-04T08:43:58.032Z,2.15
2022-12-04T08:46:27.691Z,2.26
2022-12-04T08:48:56.620Z,2.70
2022-12-04T08:51:26.298Z,2.82
2022-12-04T08:53:57.230Z,2.74
2022-12-04T08:56:25.929Z,1.67
2022-12-04T08:58:54.552Z,2.22
2022-12-04T09:01:22.631Z,2.01
2022-12-04T09:03:51.064Z,1.73
2022-12-04T09:06:19.622Z,1.84
2022-12-04T09:08:48.076Z,1.83
2022-12-04T09:11:18.973Z,2.12
2022-12-04T09:13:47.398Z,2.37
2022-12-04T09:16:17.624Z,1.76
2022-12-04T09:18:46.349Z,1.58
2022-12-04T09:21:16.056Z,2.27
2022-12-04T09:23:46.055Z,2.00
2022-12-04T09:26:21.816Z,2.29
2022-12-04T09:28:50.862Z,2.31
2022-12-04T09:31:19.895Z,2.53
2022-12-04T09:33:48.553Z,2.64
2022-12-04T09:36:17.131Z,2.56
2022-12-04T09:38:46.286Z,2.66
2022-12-04T09:41:25.131Z,3.06
2022-12-04T09:43:58.020Z,2.74
2022-12-04T09:46:28.808Z,2.56
2022-12-04T09:48:59.913Z,2.70
2022-12-04T09:51:29.067Z,2.95
2022-12-04T09:54:01.090Z,3.16
2022-12-04T09:56:31.607Z,3.69
2022-12-04T09:59:04.774Z,3.92
2022-12-04T10:01:37.223Z,3.88
2022-12-04T10:04:06.780Z,3.15
2022-12-04T10:06:40.797Z,3.35
2022-12-04T10:09:14.162Z,3.56
2022-12-04T10:11:51.678Z,3.78
2022-12-04T10:14:29.602Z,3.52
2022-12-04T10:17:19.590Z,3.38
2022-12-04T10:19:52.395Z,3.76
2022-12-04T10:22:25.023Z,4.59
2022-12-04T10:24:54.634Z,4.12
2022-12-04T10:27:27.479Z,4.39
2022-12-04T10:30:00.193Z,4.80
2022-12-04T10:32:33.087Z,4.95
2022-12-04T10:35:15.803Z,5.44
2022-12-04T10:37:45.234Z,5.30
2022-12-04T10:40:18.702Z,5.33
2022-12-04T10:42:52.978Z,5.65
2022-12-04T10:45:22.732Z,5.13
2022-12-04T10:47:51.904Z,5.53
2022-12-04T10:50:22.425Z,5.72
2022-12-04T10:52:50.614Z,5.58
2022-12-04T10:55:29.323Z,5.93
2022-12-04T10:57:58.839Z,6.03
2022-12-04T11:00:30.683Z,5.71
2022-12-04T11:03:01.190Z,5.98
2022-12-04T11:05:32.447Z,6.49
2022-12-04T11:08:02.525Z,6.73
2022-12-04T11:10:35.494Z,7.40
2022-12-04T11:13:08.094Z,8.47
2022-12-04T11:15:37.665Z,8.88
2022-12-04T11:18:09.886Z,9.58
2022-12-04T11:20:40.741Z,10.03
2022-12-04T11:23:16.409Z,11.36
2022-12-04T11:25:49.123Z,11.19
2022-12-04T11:28:40.740Z,11.58
2022-12-04T11:31:10.870Z,12.31
2022-12-04T11:33:40.458Z,12.56
2022-12-04T11:36:21.134Z,13.14
2022-12-04T11:38:49.909Z,13.04
2022-12-04T11:41:26.596Z,13.01
2022-12-04T11:44:00.022Z,12.83
2022-12-04T11:46:31.721Z,12.87
2022-12-04T11:49:00.289Z,12.66
2022-12-04T11:51:38.287Z,12.96
2022-12-04T11:54:12.814Z,13.09
2022-12-04T11:56:44.312Z,13.05
2022-12-04T11:59:34.633Z,12.66
2022-12-04T12:02:11.610Z,11.67
2022-12-04T12:04:54.787Z,11.08
2022-12-04T12:07:32.694Z,10.24
2022-12-04T12:10:05.157Z,9.94
2022-12-04T12:12:43.393Z,9.68
2022-12-04T12:15:20.970Z,9.12
2022-12-04T12:17:53.155Z,8.38
2022-12-04T12:20:23.720Z,8.08
2022-12-04T12:23:14.012Z,8.16
2022-12-04T12:25:52.063Z,7.84
2022-12-04T12:28:36.124Z,7.88
2022-12-04T12:31:16.082Z,7.82
2022-12-04T12:33:47.571Z,7.52
2022-12-04T12:36:17.593Z,7.22
2022-12-04T12:38:49.988Z,7.15
2022-12-04T12:41:20.426Z,6.87
2022-12-04T12:43:54.370Z,6.82
2022-12-04T12:46:27.698Z,6.49
2022-12-04T12:49:01.754Z,6.57
2022-12-04T12:51:35.188Z,6.73
2022-12-04T12:54:12.988Z,6.70
2022-12-04T12:56:49.159Z,6.54
2022-12-04T12:59:21.146Z,6.29
2022-12-04T13:01:58.697Z,6.34
2022-12-04T13:04:33.721Z,6.40
2022-12-04T13:07:09.529Z,6.48
2022-12-04T13:09:39.143Z,6.26
2022-12-04T13:12:12.773Z,6.24
2022-12-04T13:14:44.678Z,5.72
2022-12-04T13:17:30.419Z,6.20
2022-12-04T13:19:59.484Z,5.95
2022-12-04T13:22:33.562Z,6.19
2022-12-04T13:25:10.059Z,5.97
2022-12-04T13:27:47.977Z,5.87
2022-12-04T13:30:19.087Z,5.69
2022-12-04T13:33:09.749Z,6.01
2022-12-04T13:35:53.879Z,5.88
2022-12-04T13:38:29.644Z,5.57
2022-12-04T13:40:59.904Z,5.32
2022-12-04T13:43:36.732Z,5.48
2022-12-04T13:46:08.259Z,5.41
2022-12-04T13:48:39.746Z,5.74
2022-12-04T13:51:09.649Z,5.59
2022-12-04T13:53:40.501Z,5.14
2022-12-04T13:56:14.878Z,4.53
2022-12-04T13:58:43.945Z,3.93
2022-12-04T14:01:25.813Z,4.54
2022-12-04T14:03:57.609Z,4.36
2022-12-04T14:06:27.921Z,3.83
2022-12-04T14:08:58.374Z,4.30
2022-12-04T14:11:27.687Z,4.51
2022-12-04T14:13:57.276Z,4.26
2022-12-04T14:16:27.203Z,4.16
2022-12-04T14:18:58.195Z,3.76
2022-12-04T14:21:26.656Z,3.33
2022-12-04T14:23:54.842Z,3.22
2022-12-04T14:26:37.450Z,3.43
2022-12-04T14:29:31.537Z,3.62
2022-12-04T14:32:02.135Z,3.98
2022-12-04T14:34:32.642Z,3.51
2022-12-04T14:37:02.207Z,3.51
2022-12-04T14:39:31.437Z,3.58
2022-12-04T14:42:07.722Z,3.55
2022-12-04T14:44:35.822Z,3.58
2022-12-04T14:47:14.983Z,4.11
2022-12-04T14:49:51.535Z,3.42
2022-12-04T14:52:26.581Z,3.33
2022-12-04T14:55:02.978Z,3.78
2022-12-04T14:57:41.546Z,4.04
2022-12-04T15:00:16.480Z,3.86
2022-12-04T15:02:46.093Z,3.47
2022-12-04T15:05:20.825Z,3.73
2022-12-04T15:07:51.528Z,3.45
2022-12-04T15:10:40.249Z,3.58
2022-12-04T15:13:09.471Z,2.92
2022-12-04T15:15:38.096Z,3.05
2022-12-04T15:18:14.043Z,3.63
2022-12-04T15:20:56.088Z,3.61
2022-12-04T15:23:29.389Z,3.32
2022-12-04T15:25:59.048Z,3.68
2022-12-04T15:28:29.349Z,3.19
2022-12-04T15:30:58.807Z,3.20
2022-12-04T15:33:28.551Z,2.97
2022-12-04T15:36:00.500Z,3.29
2022-12-04T15:38:29.197Z,2.90
2022-12-04T15:40:58.999Z,2.87
2022-12-04T15:43:29.850Z,3.13
2022-12-04T15:45:58.624Z,2.28
2022-12-04T15:48:28.735Z,3.09
2022-12-04T15:51:00.383Z,3.15
2022-12-04T15:53:31.105Z,3.06
2022-12-04T15:56:01.483Z,2.96
2022-12-04T15:58:31.140Z,2.33
2022-12-04T16:01:00.913Z,3.00
2022-12-04T16:03:32.045Z,3.19
2022-12-04T16:06:07.157Z,3.27
2022-12-04T16:08:42.468Z,2.81
2022-12-04T16:11:25.723Z,3.64
2022-12-04T16:14:06.538Z,3.42
2022-12-04T16:16:35.555Z,2.84
2022-12-04T16:19:08.471Z,2.94
2022-12-04T16:21:38.346Z,3.51
2022-12-04T16:24:08.972Z,3.18
2022-12-04T16:26:37.260Z,2.96
2022-12-04T16:29:05.715Z,2.41
2022-12-04T16:31:34.237Z,2.28
2022-12-04T16:34:02.462Z,2.72
2022-12-04T16:36:30.904Z,3.03
2022-12-04T16:39:00.894Z,3.17
2022-12-04T16:41:29.374Z,2.62
2022-12-04T16:43:59.849Z,2.60
2022-12-04T16:46:30.695Z,2.63
2022-12-04T16:49:04.277Z,2.48
2022-12-04T16:51:37.460Z,2.29
2022-12-04T16:54:07.024Z,3.16
2022-12-04T16:56:35.493Z,2.73
2022-12-04T16:59:07.702Z,2.93
2022-12-04T17:01:42.634Z,3.41
2022-12-04T17:04:11.076Z,2.77
2022-12-04T17:06:39.563Z,2.51
2022-12-04T17:09:10.023Z,3.05
2022-12-04T17:11:38.788Z,2.73
2022-12-04T17:14:08.097Z,2.78
2022-12-04T17:16:36.736Z,2.77
2022-12-04T17:19:05.665Z,2.81
2022-12-04T17:21:34.308Z,2.74
2022-12-04T17:24:03.267Z,3.23
2022-12-04T17:26:33.287Z,3.30
2022-12-04T17:29:01.391Z,2.86
2022-12-04T17:31:29.992Z,2.84
2022-12-04T17:33:58.692Z,2.69
2022-12-04T17:36:27.963Z,2.14
2022-12-04T17:38:57.084Z,2.66
2022-12-04T17:41:25.631Z,1.89
2022-12-04T17:43:55.282Z,2.26
2022-12-04T17:46:24.708Z,2.58
2022-12-04T17:48:53.196Z,2.51
2022-12-04T17:51:23.193Z,3.13
2022-12-04T17:53:52.069Z,3.04
2022-12-04T17:56:21.978Z,3.05
2022-12-04T17:58:50.306Z,3.05
2022-12-04T18:01:22.333Z,3.34
2022-12-04T18:03:51.292Z,3.38
2022-12-04T18:06:21.943Z,3.27
2022-12-04T18:08:50.714Z,2.98
2022-12-04T18:11:20.950Z,3.12
2022-12-04T18:13:49.401Z,2.69
2022-12-04T18:16:17.954Z,3.14
2022-12-04T18:18:47.910Z,3.38
2022-12-04T18:21:16.623Z,3.18
2022-12-04T18:23:46.035Z,2.92
2022-12-04T18:26:16.359Z,3.08
2022-12-04T18:28:45.030Z,2.51
2022-12-04T18:31:14.090Z,2.81
2022-12-04T18:33:43.239Z,2.74
2022-12-04T18:36:16.340Z,2.62
2022-12-04T18:38:44.862Z,2.23
2022-12-04T18:41:14.724Z,2.77
2022-12-04T18:43:45.273Z,2.85
2022-12-04T18:46:16.376Z,2.65
2022-12-04T18:48:45.946Z,2.62
2022-12-04T18:51:17.765Z,2.38
2022-12-04T18:53:45.977Z,1.81
2022-12-04T18:56:14.704Z,1.89
2022-12-04T18:58:42.975Z,2.10
2022-12-04T19:01:12.594Z,2.23
2022-12-04T19:03:41.361Z,2.50
2022-12-04T19:06:09.989Z,2.17
2022-12-04T19:08:43.029Z,2.89
2022-12-04T19:11:15.189Z,3.06
2022-12-04T19:13:43.143Z,3.11
2022-12-04T19:16:12.742Z,2.81
2022-12-04T19:18:42.328Z,2.19
2022-12-04T19:21:10.817Z,2.69
2022-12-04T19:23:40.745Z,2.99
2022-12-04T19:26:09.522Z,2.71
2022-12-04T19:28:38.182Z,2.52
2022-12-04T19:31:06.645Z,2.29
2022-12-04T19:33:34.793Z,1.82
2022-12-04T19:36:05.460Z,2.05
2022-12-04T19:38:34.174Z,2.22
2022-12-04T19:41:06.480Z,2.75
2022-12-04T19:43:34.673Z,2.06
2022-12-04T19:46:03.178Z,2.68
2022-12-04T19:48:31.351Z,2.67
2022-12-04T19:51:04.091Z,3.05
2022-12-04T19:53:36.256Z,2.34
2022-12-04T19:56:11.247Z,3.20
2022-12-04T19:58:39.499Z,2.80
2022-12-04T20:01:09.770Z,3.02
2022-12-04T20:03:38.053Z,2.56
2022-12-04T20:06:07.980Z,2.11
2022-12-04T20:08:36.447Z,1.88
2022-12-04T20:11:05.672Z,2.55
2022-12-04T20:13:37.301Z,2.82
2022-12-04T20:16:06.990Z,2.71
2022-12-04T20:18:35.884Z,2.52
2022-12-04T20:21:05.069Z,2.21
2022-12-04T20:23:33.166Z,2.48
2022-12-04T20:26:05.262Z,2.84
2022-12-04T20:28:33.604Z,2.23
2022-12-04T20:31:12.400Z,2.94
2022-12-04T20:33:41.303Z,2.22
2022-12-04T20:36:10.423Z,2.17
2022-12-04T20:38:39.120Z,2.76
2022-12-04T20:41:09.205Z,3.14
2022-12-04T20:43:38.146Z,2.75
2022-12-04T20:46:16.539Z,2.82
2022-12-04T20:48:48.335Z,2.47
2022-12-04T20:51:17.431Z,2.20
2022-12-04T20:53:45.866Z,2.89
2022-12-04T20:56:14.584Z,2.97
2022-12-04T20:58:42.834Z,2.98
2022-12-04T21:01:13.126Z,3.02
2022-12-04T21:03:43.204Z,3.31
2022-12-04T21:06:13.978Z,3.28
2022-12-04T21:08:54.468Z,3.06
2022-12-04T21:11:23.158Z,2.98
2022-12-04T21:14:08.634Z,2.44
2022-12-04T21:16:37.264Z,2.62
2022-12-04T21:19:09.552Z,2.93
2022-12-04T21:21:38.376Z,2.89
2022-12-04T21:24:08.649Z,3.05
2022-12-04T21:26:37.107Z,2.88
2022-12-04T21:29:06.481Z,3.00
2022-12-04T21:31:35.374Z,2.99
2022-12-04T21:34:08.003Z,2.99
2022-12-04T21:36:36.382Z,2.91
2022-12-04T21:39:05.177Z,3.08
2022-12-04T21:41:51.199Z,2.95
2022-12-04T21:44:21.143Z,2.97
2022-12-04T21:46:50.106Z,2.53
2022-12-04T21:49:20.331Z,2.98
2022-12-04T21:51:57.313Z,2.72
2022-12-04T21:54:26.872Z,2.70
2022-12-04T21:56:55.703Z,2.74
2022-12-04T21:59:23.831Z,2.58
2022-12-04T22:01:52.493Z,2.63
2022-12-04T22:04:22.375Z,2.14
2022-12-04T22:06:54.063Z,2.44
2022-12-04T22:09:21.980Z,2.60
2022-12-04T22:11:50.363Z,1.78
2022-12-04T22:14:18.466Z,1.52
2022-12-04T22:16:47.051Z,1.40
2022-12-04T22:19:15.622Z,1.33
2022-12-04T22:21:45.290Z,2.31
2022-12-04T22:24:14.684Z,1.95
2022-12-04T22:26:42.981Z,1.97
2022-12-04T22:29:41.943Z,2.21
2022-12-04T22:31:59.514Z,1.84
2022-12-04T22:34:27.527Z,1.57
2022-12-04T22:36:57.269Z,1.86
2022-12-04T22:39:25.427Z,1.65
2022-12-04T22:41:53.823Z,1.54
2022-12-04T22:44:22.003Z,1.04
2022-12-04T22:46:50.451Z,0.99
2022-12-04T22:49:18.591Z,1.02
2022-12-04T22:51:46.910Z,1.23
2022-12-04T22:54:18.304Z,1.47
2022-12-04T22:56:46.825Z,1.14
2022-12-04T22:59:15.170Z,0.94
2022-12-04T23:01:43.542Z,1.36
2022-12-04T23:04:14.945Z,1.52
2022-12-04T23:06:43.279Z,0.56
2022-12-04T23:09:14.633Z,1.06
2022-12-04T23:11:45.336Z,1.29
2022-12-04T23:14:15.794Z,1.02
2022-12-04T23:16:44.787Z,1.07
2022-12-04T23:19:15.669Z,1.38
2022-12-04T23:21:44.548Z,1.08
2022-12-04T23:24:12.911Z,1.28
2022-12-04T23:26:42.885Z,1.46
2022-12-04T23:32:04.855Z,0.76
2022-12-04T23:34:33.326Z,0.68
2022-12-04T23:37:02.104Z,1.33
2022-12-04T23:39:30.568Z,0.85
2022-12-04T23:41:59.021Z,1.26
2022-12-04T23:44:28.658Z,1.72
2022-12-04T23:46:57.170Z,2.13
2022-12-04T23:49:25.237Z,1.81
2022-12-04T23:51:53.512Z,1.61
2022-12-04T23:54:21.613Z,1.77
2022-12-04T23:56:49.949Z,1.77
2022-12-04T23:59:18.008Z,1.56
